createdAt,value
2023-04-28T00:01:14.179Z,19.5
2023-04-28T00:07:08.301Z,19.4
2023-04-28T00:12:59.287Z,19.3
2023-04-28T00:18:51.685Z,19.2
2023-04-28T00:24:43.637Z,19.1
2023-04-28T00:30:38.872Z,19.1
2023-04-28T00:36:30.506Z,19
2023-04-28T00:42:07.306Z,18.9
2023-04-28T00:47:42.767Z,18.8
2023-04-28T00:53:34.066Z,18.8
2023-04-28T01:04:48.599Z,18.6
2023-04-28T01:10:40.239Z,18.5
2023-04-28T01:16:32.515Z,18.4
2023-04-28T01:22:23.237Z,18.4
2023-04-28T01:28:14.563Z,18.3
2023-04-28T01:34:06.534Z,18.2
2023-04-28T01:39:57.797Z,18.1
2023-04-28T01:45:49.360Z,18.1
2023-04-28T01:51:41.280Z,18
2023-04-28T01:57:34.322Z,17.9
2023-04-28T02:03:26.453Z,17.8
2023-04-28T02:09:18.530Z,17.8
2023-04-28T02:14:54.342Z,17.7
2023-04-28T02:20:49.010Z,17.6
2023-04-28T02:26:25.183Z,17.6
2023-04-28T02:32:01.139Z,17.5
2023-04-28T02:37:52.469Z,17.4
2023-04-28T02:43:43.897Z,17.4
2023-04-28T02:49:20.152Z,17.4
2023-04-28T02:55:11.799Z,17.3
2023-04-28T03:01:03.868Z,17.3
2023-04-28T03:06:41.718Z,17.3
2023-04-28T03:12:17.803Z,17.2
2023-04-28T03:17:40.524Z,17.1
2023-04-28T03:23:31.070Z,17.1
2023-04-28T03:29:16.272Z,17.1
2023-04-28T03:40:29.163Z,16.9
2023-04-28T03:46:22.793Z,16.9
2023-04-28T03:52:14.088Z,16.9
2023-04-28T03:58:04.925Z,16.8
2023-04-28T04:03:57.491Z,16.8
2023-04-28T04:09:36.487Z,16.8
2023-04-28T04:15:28.094Z,16.8
2023-04-28T04:21:21.216Z,16.7
2023-04-28T04:27:12.667Z,16.7
2023-04-28T04:33:04.279Z,16.6
2023-04-28T04:38:55.784Z,16.6
2023-04-28T04:45:04.280Z,16.6
2023-04-28T04:50:56.666Z,16.6
2023-04-28T04:56:50.498Z,16.5
2023-04-28T05:02:42.412Z,16.5
2023-04-28T05:08:50.568Z,16.4
2023-04-28T05:14:45.259Z,16.4
2023-04-28T05:20:37.572Z,16.4
2023-04-28T05:26:29.514Z,16.4
2023-04-28T05:32:21.291Z,16.4
2023-04-28T05:38:13.205Z,16.3
2023-04-28T05:44:05.357Z,16.3
2023-04-28T05:50:09.171Z,16.3
2023-04-28T05:56:01.557Z,16.2
2023-04-28T06:02:00.751Z,16.2
2023-04-28T06:07:25.551Z,16.2
2023-04-28T06:13:16.966Z,16.2
2023-04-28T06:18:38.554Z,16.2
2023-04-28T06:24:14.424Z,16.1
2023-04-28T06:29:36.528Z,16.1
2023-04-28T06:35:14.804Z,16.1
2023-04-28T06:40:20.358Z,16.1
2023-04-28T06:45:44.265Z,16.1
2023-04-28T06:51:04.955Z,16.1
2023-04-28T06:56:47.200Z,16.1
2023-04-28T07:02:40.761Z,16.1
2023-04-28T07:08:35.099Z,16.1
2023-04-28T07:14:28.954Z,16
2023-04-28T07:20:20.815Z,16
2023-04-28T07:26:14.335Z,16
2023-04-28T07:32:24.052Z,16
2023-04-28T07:38:16.121Z,16
2023-04-28T07:44:10.122Z,16
2023-04-28T07:49:47.188Z,15.9
2023-04-28T07:55:38.664Z,15.9
2023-04-28T08:01:31.160Z,15.9
2023-04-28T08:07:25.867Z,15.9
2023-04-28T08:13:16.733Z,15.9
2023-04-28T08:18:54.429Z,15.9
2023-04-28T08:24:48.918Z,15.9
2023-04-28T08:30:27.020Z,15.9
2023-04-28T08:36:03.740Z,15.9
2023-04-28T08:41:42.620Z,15.9
2023-04-28T08:47:04.988Z,15.9
2023-04-28T08:52:41.022Z,15.9
2023-04-28T08:58:18.445Z,15.9
2023-04-28T09:03:56.326Z,15.9
2023-04-28T09:09:19.535Z,15.9
2023-04-28T09:14:42.710Z,15.9
2023-04-28T09:20:19.747Z,15.9
2023-04-28T09:26:28.805Z,15.9
2023-04-28T09:32:05.431Z,15.9
2023-04-28T09:37:27.565Z,15.9
2023-04-28T09:43:15.264Z,15.9
2023-04-28T09:48:43.235Z,15.9
2023-04-28T09:54:34.128Z,15.9
2023-04-28T10:00:26.138Z,15.9
2023-04-28T10:08:15.950Z,15.9
2023-04-28T10:14:07.484Z,15.9
2023-04-28T10:19:43.524Z,15.9
2023-04-28T10:25:35.189Z,15.9
2023-04-28T10:31:39.098Z,15.9
2023-04-28T10:37:42.674Z,15.9
2023-04-28T10:43:33.464Z,15.9
2023-04-28T10:49:30.644Z,15.9
2023-04-28T10:55:45.221Z,15.9
2023-04-28T11:01:39.562Z,15.9
2023-04-28T11:07:33.002Z,15.9
2023-04-28T11:13:24.185Z,15.9
2023-04-28T11:19:02.811Z,15.9
2023-04-28T11:24:54.099Z,15.9
2023-04-28T11:30:45.243Z,16
2023-04-28T11:36:37.015Z,16
2023-04-28T11:42:29.663Z,16
2023-04-28T11:48:29.413Z,16
2023-04-28T11:54:21.459Z,16
2023-04-28T12:00:15.343Z,16
2023-04-28T12:06:11.733Z,16.1
2023-04-28T12:12:03.108Z,16.1
2023-04-28T12:18:11.863Z,16.1
2023-04-28T12:24:04.116Z,16.1
2023-04-28T12:29:39.609Z,16.1
2023-04-28T12:35:33.231Z,16.1
2023-04-28T12:41:25.494Z,16.1
2023-04-28T12:47:18.836Z,16.1
2023-04-28T12:53:10.475Z,16.1
2023-04-28T12:58:46.796Z,16.1
2023-04-28T13:04:40.519Z,16.2
2023-04-28T13:10:33.161Z,16.2
2023-04-28T13:16:35.467Z,16.2
2023-04-28T13:22:29.208Z,16.2
2023-04-28T13:28:06.188Z,16.2
2023-04-28T13:33:42.774Z,16.3
2023-04-28T13:39:35.168Z,16.3
2023-04-28T13:45:26.349Z,16.3
2023-04-28T13:51:17.828Z,16.3
2023-04-28T13:57:09.699Z,16.3
2023-04-28T14:03:01.932Z,16.3
2023-04-28T14:08:53.485Z,16.3
2023-04-28T14:14:45.313Z,16.3
2023-04-28T14:20:47.815Z,16.3
2023-04-28T14:26:39.207Z,16.3
2023-04-28T14:32:31.362Z,16.3
2023-04-28T14:38:23.422Z,16.3
2023-04-28T14:43:59.894Z,16.3
2023-04-28T14:49:52.207Z,16.4
2023-04-28T14:55:43.967Z,16.4
2023-04-28T15:01:37.887Z,16.4
2023-04-28T15:07:31.953Z,16.4
2023-04-28T15:13:10.990Z,16.4
2023-04-28T15:19:04.037Z,16.4
2023-04-28T15:24:56.345Z,16.4
2023-04-28T15:30:48.758Z,16.4
2023-04-28T15:36:42.005Z,16.4
2023-04-28T15:42:36.782Z,16.4
2023-04-28T15:48:29.185Z,16.4
2023-04-28T15:54:21.585Z,16.5
2023-04-28T16:00:13.457Z,16.5
2023-04-28T16:06:07.200Z,16.5
2023-04-28T16:11:59.411Z,16.5
2023-04-28T16:17:52.447Z,16.5
2023-04-28T16:23:30.385Z,16.6
2023-04-28T16:29:22.495Z,16.6
2023-04-28T16:35:15.643Z,16.6
2023-04-28T16:41:07.645Z,16.5
2023-04-28T16:47:00.364Z,16.5
2023-04-28T16:52:53.183Z,16.6
2023-04-28T16:58:46.020Z,16.6
2023-04-28T17:04:39.754Z,16.6
2023-04-28T17:10:00.923Z,16.6
2023-04-28T17:15:55.440Z,16.6
2023-04-28T17:21:48.202Z,16.6
2023-04-28T17:27:40.220Z,16.6
2023-04-28T17:33:35.406Z,16.6
2023-04-28T17:39:27.405Z,16.6
2023-04-28T17:45:18.950Z,16.6
2023-04-28T17:51:11.563Z,16.6
2023-04-28T17:57:05.053Z,16.6
2023-04-28T18:02:57.650Z,16.6
2023-04-28T18:08:53.684Z,16.6
2023-04-28T18:14:48.137Z,16.6
2023-04-28T18:20:43.157Z,16.6
2023-04-28T18:26:35.007Z,16.5
2023-04-28T18:32:30.337Z,16.5
2023-04-28T18:38:22.215Z,16.5
2023-04-28T18:44:14.519Z,16.5
2023-04-28T18:50:09.923Z,16.5
2023-04-28T18:56:01.300Z,16.5
2023-04-28T19:01:53.591Z,16.4
2023-04-28T19:07:31.766Z,16.4
2023-04-28T19:13:28.160Z,16.4
2023-04-28T19:19:19.791Z,16.4
2023-04-28T19:25:11.844Z,16.4
2023-04-28T19:31:04.254Z,16.4
2023-04-28T19:36:56.992Z,16.4
2023-04-28T19:42:49.443Z,16.4
2023-04-28T19:48:42.513Z,16.4
2023-04-28T19:54:34.833Z,16.4
2023-04-28T19:59:56.458Z,16.4
2023-04-28T20:05:53.899Z,16.4
2023-04-28T20:11:32.123Z,16.4
2023-04-28T20:17:23.661Z,16.4
2023-04-28T20:23:15.718Z,16.3
2023-04-28T20:29:08.352Z,16.4
2023-04-28T20:35:00.578Z,16.5
2023-04-28T20:40:52.101Z,16.9
2023-04-28T20:46:44.133Z,17.3
2023-04-28T20:52:37.749Z,17.6
2023-04-28T20:58:30.966Z,17.6
2023-04-28T21:04:24.601Z,17.6
2023-04-28T21:10:16.425Z,17.6
2023-04-28T21:16:07.451Z,17.7
2023-04-28T21:21:44.200Z,17.9
2023-04-28T21:27:35.940Z,17.9
2023-04-28T21:33:27.658Z,17.9
2023-04-28T21:39:19.220Z,17.9
2023-04-28T21:44:55.414Z,17.8
2023-04-28T21:50:16.471Z,17.8
2023-04-28T21:56:07.711Z,17.9
2023-04-28T22:01:59.782Z,18
2023-04-28T22:07:38.126Z,18
2023-04-28T22:13:29.961Z,18
2023-04-28T22:19:37.761Z,17.9
2023-04-28T22:25:29.319Z,17.8
2023-04-28T22:31:05.111Z,17.7
2023-04-28T22:36:41.470Z,17.8
2023-04-28T22:42:17.560Z,17.9
2023-04-28T22:48:08.788Z,17.9
2023-04-28T22:54:00.308Z,17.9
2023-04-28T22:59:39.191Z,17.8
2023-04-28T23:05:33.228Z,17.8
2023-04-28T23:11:09.454Z,17.6
2023-04-28T23:17:00.928Z,17.8
2023-04-28T23:22:55.070Z,17.9
2023-04-28T23:28:30.840Z,17.9
2023-04-28T23:34:07.272Z,17.9
2023-04-28T23:39:43.516Z,17.8
2023-04-28T23:45:20.132Z,17.8
2023-04-28T23:51:11.547Z,17.6
2023-04-28T23:57:02.349Z,17.6
